Airfield :
LOGIN :

Register | Disclaimer

   EN    FR    IT 

 










Legend :    VFR   Marginal VFR   IFR   Intensive IFR   Very Intensive IFR
Visi :
Ceiling :
>= 8 km
>= 3000ft
5 to 8 km
1000 to 3000 ft
1500m to 5 km
500 to 1000 ft
800 to 1500m
200 to 500 ft
< 800m
< 200 ft
Symbols :   Thunderstorms  Fog  Heavy snow  Heavy precipitations  Wind > 20 kt
SIGMETs :     Misc.  Thunderstorms  Icing  Turbulence  Mountain Waves  Volcanic Ashes






- Airport Elevation : 512 ft
- IATA code : URO


LFOP - Rouen Vallée de Seine

CURRENT METAR :
  • 270800Z AUTO 16014KT 2900 -RA BR OVC003/// ///TCU 04/04 Q0992 TEMPO 4000 RADZ OVC004

EXPIRED METARs :
  • 270730Z AUTO 15015KT 3600 -RA BR OVC004/// ///TCU 03/03 Q0992 TEMPO RADZ OVC004
  • 270700Z AUTO 15018KT 5000 -SNRA BR OVC004/// ///TCU 02/02 Q0993 TEMPO 2000 SN OVC004
  • 270630Z AUTO 15019KT 5000 -SNRA BR OVC006 02/02 Q0994 TEMPO 2000 SN OVC004
  • 270600Z AUTO 16018KT 7000 -SNRA OVC006/// ///TCU 03/02 Q0996
  • 270530Z AUTO 16014KT 6000 -SNRA BKN007/// OVC012/// ///TCU 03/03 Q0998

TAF TAF LFOP
Valid from the 27 at 06:00 until the 28 at 06:00 UTC


270500Z 2706/2806 18015KT 6000 RA OVC006
TEMPO 2706/2711 4000 RADZ OVC004
PROB40
TEMPO 2706/2708 2000 SN OVC002
BECMG 2711/2713 31020G35KT NSW BKN016
BECMG 2716/2718 31015G25KT
BECMG 2718/2720 26005KT
ATIS : +33 2 35 80 80 34
Met : +33 2 32 86 52 80



MET'MAP, your aeronautical weather chart ! - Copyright ORBIFLY December 2007 - Disclaimer

ORBIFLY MET'MAP TEAM :

Programming & Development : Alexandra Zaïnal
Concept & original design : Baudouin d'Aumeries
Assistance for programming : Marc-Olivier Méhu
Technical & hardware support : Manuel Goepfert

Contact : metmap@orbifly.com




SOURCES & CREDITS :

   NOAA